Airfield :
LOGIN :

Register | Disclaimer

   EN    FR    IT 

 










Legend :    VFR   Marginal VFR   IFR   Intensive IFR   Very Intensive IFR
Visi :
Ceiling :
>= 8 km
>= 3000ft
5 to 8 km
1000 to 3000 ft
1500m to 5 km
500 to 1000 ft
800 to 1500m
200 to 500 ft
< 800m
< 200 ft
Symbols :   Thunderstorms  Fog  Heavy snow  Heavy precipitations  Wind > 20 kt
SIGMETs :     Misc.  Thunderstorms  Icing  Turbulence  Mountain Waves  Volcanic Ashes







- Airport Elevation : 194 ft
- IATA code : LME
- Download approach charts


LFRM - Le Mans

CURRENT METAR :
  • 200530Z AUTO 00000KT 0900 FG VV/// 06/06 Q1023 TEMPO 0400 FG

EXPIRED METARs :
  • 200500Z AUTO 00000KT 1100 BCFG VV/// 06/06 Q1023
  • 200430Z AUTO 00000KT 0650 0600 FG VV/// 06/06 Q1023
  • 200400Z AUTO 00000KT 0650 FG VV/// 06/06 Q1023
  • 200330Z AUTO 00000KT 0650 FG VV/// 06/06 Q1023
  • 200300Z AUTO 00000KT 9999 BKN001 06/06 Q1023

TAF TAF LFRM
Valid from the 20 at 06:00 until the 20 at 15:00 UTC


200500Z 2006/2015 VRB03KT 1000 BCFG FEW001
TEMPO 2006/2008 0400 FG VV///
BECMG 2008/2010 4000 BR BKN005
BECMG 2010/2012 22005KT 9999 NSW SCT020
No reported NOTAMs for that airfield.



MET'MAP, your aeronautical weather chart ! - Copyright ORBIFLY December 2007 - Disclaimer

ORBIFLY MET'MAP TEAM :

Programming & Development : Alexandra Zaïnal
Concept & Development : Baudouin d'Aumeries
Co-Development & Prog : Marc-Olivier Méhu
Technical & hardware support : Manuel Goepfert

Contact : metmap@orbifly.com




SOURCES & CREDITS :

   NOAA